Time;durP1;ratioP1;P1;durP2;ratioP2;P2;SDS_P1;SDS_P2;PMS_P1;PMS_P2;Temp;Humidity;BMP_temperature;BMP_pressure;BME280_temperature;BME280_humidity;BME280_pressure;Samples;Min_cycle;Max_cycle;Signal;HPM_P1;HPM_P2
2023/06/21 00:00:53;;;;;;;17.90;12.47;;;19.00;99.90;;;;;;5033695;28;20212;-75
2023/06/21 00:03:21;;;;;;;14.97;11.40;;;18.90;99.90;;;;;;5034006;28;20303;-74
2023/06/21 00:05:49;;;;;;;15.63;12.60;;;19.00;99.90;;;;;;5034414;28;20709;-76
2023/06/21 00:08:17;;;;;;;18.17;14.10;;;18.90;99.90;;;;;;5034257;28;20209;-75
2023/06/21 00:10:45;;;;;;;17.47;13.57;;;18.90;99.90;;;;;;5034444;28;20240;-74
2023/06/21 00:13:15;;;;;;;16.57;13.57;;;18.90;99.90;;;;;;5033937;28;20283;-74
2023/06/21 00:15:43;;;;;;;19.90;14.47;;;18.90;99.90;;;;;;5033522;28;20677;-76
2023/06/21 00:18:11;;;;;;;20.00;14.73;;;18.90;99.90;;;;;;5033608;28;20220;-75
2023/06/21 00:20:40;;;;;;;15.70;14.00;;;18.80;99.90;;;;;;5033697;28;20209;-76
2023/06/21 00:23:08;;;;;;;17.97;15.23;;;18.80;99.90;;;;;;5033540;28;20278;-75
2023/06/21 00:25:36;;;;;;;21.30;16.50;;;18.80;99.90;;;;;;5033757;28;20216;-77
2023/06/21 00:28:06;;;;;;;17.50;15.43;;;18.80;99.90;;;;;;5046624;28;20231;-76
2023/06/21 00:30:36;;;;;;;21.17;15.37;;;18.80;99.90;;;;;;5053912;28;20254;-74
2023/06/21 00:33:04;;;;;;;16.70;14.93;;;18.80;99.90;;;;;;5053294;28;20620;-77
2023/06/21 00:35:32;;;;;;;19.47;14.93;;;18.80;99.90;;;;;;5053276;28;20212;-77
2023/06/21 00:38:02;;;;;;;20.17;14.67;;;18.70;99.90;;;;;;5051921;28;20224;-75
2023/06/21 00:40:30;;;;;;;19.67;14.50;;;18.70;99.90;;;;;;5053379;28;20266;-75
2023/06/21 00:43:03;;;;;;;18.33;15.17;;;18.70;99.90;;;;;;5052992;28;20197;-77
2023/06/21 00:45:38;;;;;;;19.80;14.67;;;18.70;99.90;;;;;;5034720;28;20270;-76
2023/06/21 00:48:08;;;;;;;16.80;14.60;;;18.70;99.90;;;;;;5033208;28;20212;-76
2023/06/21 00:50:38;;;;;;;18.63;13.93;;;18.70;99.90;;;;;;5033027;28;20255;-75
2023/06/21 00:53:06;;;;;;;18.30;15.67;;;18.70;99.90;;;;;;5032881;28;20205;-74
2023/06/21 00:55:35;;;;;;;17.50;14.23;;;18.60;99.90;;;;;;5033103;28;20316;-76
2023/06/21 00:58:03;;;;;;;20.33;14.93;;;18.60;99.90;;;;;;5032176;28;20237;-76
2023/06/21 01:00:31;;;;;;;20.23;14.97;;;18.60;99.90;;;;;;5033186;28;20228;-76
2023/06/21 01:03:00;;;;;;;21.40;16.73;;;18.60;99.90;;;;;;5032687;28;20209;-74
2023/06/21 01:05:30;;;;;;;19.53;15.40;;;18.60;99.90;;;;;;5032903;28;20236;-74
2023/06/21 01:08:05;;;;;;;21.07;15.20;;;18.60;99.90;;;;;;5033163;28;20287;-75
2023/06/21 01:10:45;;;;;;;18.47;16.13;;;18.60;99.90;;;;;;5032466;28;20227;-75
2023/06/21 01:13:32;;;;;;;23.30;17.30;;;18.50;99.90;;;;;;5032848;28;20213;-75
2023/06/21 01:16:06;;;;;;;20.70;16.00;;;18.50;99.90;;;;;;5032095;28;20662;-75
2023/06/21 01:18:36;;;;;;;20.10;15.17;;;18.50;99.90;;;;;;5032606;28;20248;-77
2023/06/21 01:21:08;;;;;;;19.13;16.23;;;18.50;99.90;;;;;;5032584;28;20679;-76
2023/06/21 01:23:55;;;;;;;22.23;17.67;;;18.50;99.90;;;;;;5032318;28;20208;-74
2023/06/21 01:26:44;;;;;;;19.17;16.77;;;18.50;99.90;;;;;;5032337;28;20188;-75
2023/06/21 01:29:17;;;;;;;20.13;16.00;;;18.50;99.90;;;;;;5032481;28;20580;-76
2023/06/21 01:31:46;;;;;;;23.50;17.10;;;18.40;99.90;;;;;;5032603;28;20189;-75
2023/06/21 01:34:15;;;;;;;20.57;15.97;;;18.40;99.90;;;;;;5031944;28;20674;-75
2023/06/21 01:36:44;;;;;;;21.03;15.53;;;18.40;99.90;;;;;;5037861;28;20208;-75
2023/06/21 01:39:12;;;;;;;19.00;15.10;;;18.40;99.90;;;;;;5052278;28;20228;-75
2023/06/21 01:41:40;;;;;;;20.67;15.20;;;18.30;99.90;;;;;;5047375;28;20204;-75
2023/06/21 01:44:10;;;;;;;25.00;16.77;;;18.30;99.90;;;;;;5032351;28;20278;-74
2023/06/21 01:46:42;;;;;;;20.37;15.33;;;18.30;99.90;;;;;;5032072;28;20209;-75
2023/06/21 01:49:11;;;;;;;22.00;15.70;;;18.30;99.90;;;;;;5034889;28;20223;-75
2023/06/21 01:51:42;;;;;;;20.70;15.87;;;18.20;99.90;;;;;;5051960;28;20281;-75
2023/06/21 01:54:10;;;;;;;22.10;14.80;;;18.20;99.90;;;;;;5051874;28;20238;-74
2023/06/21 01:56:41;;;;;;;25.63;15.30;;;18.20;99.90;;;;;;5049661;28;20800;-75
2023/06/21 01:59:10;;;;;;;18.43;16.17;;;18.20;99.90;;;;;;5031713;28;20656;-77
2023/06/21 02:01:43;;;;;;;21.30;15.57;;;18.20;99.90;;;;;;5031695;28;20213;-76
2023/06/21 02:04:12;;;;;;;22.57;15.20;;;18.20;99.90;;;;;;5031864;28;20205;-77
2023/06/21 02:06:40;;;;;;;22.60;16.67;;;18.20;99.90;;;;;;5032171;28;20292;-76
2023/06/21 02:09:10;;;;;;;25.00;17.57;;;18.20;99.90;;;;;;5031589;28;20680;-76
2023/06/21 02:11:38;;;;;;;22.27;16.47;;;18.20;99.90;;;;;;5031892;28;20216;-75
2023/06/21 02:14:07;;;;;;;23.57;16.07;;;18.10;99.90;;;;;;5031452;28;20670;-77
2023/06/21 02:16:35;;;;;;;18.53;13.60;;;18.10;99.90;;;;;;5031744;28;20213;-75
2023/06/21 02:19:05;;;;;;;20.00;15.37;;;18.10;99.90;;;;;;5032034;28;20221;-75
2023/06/21 02:21:33;;;;;;;16.63;13.77;;;18.00;99.90;;;;;;5032083;28;20303;-75
2023/06/21 02:24:01;;;;;;;19.90;13.57;;;18.00;99.90;;;;;;5031473;28;20240;-75
2023/06/21 02:26:29;;;;;;;20.17;14.67;;;18.00;99.90;;;;;;5031585;28;20679;-76
2023/06/21 02:28:58;;;;;;;21.17;14.30;;;18.00;99.90;;;;;;5031541;28;20265;-75
2023/06/21 02:31:26;;;;;;;20.57;13.47;;;18.00;99.90;;;;;;5031588;28;20271;-75
2023/06/21 02:33:54;;;;;;;17.60;12.83;;;17.90;99.90;;;;;;5031210;28;20295;-75
2023/06/21 02:36:23;;;;;;;19.83;15.20;;;17.90;99.90;;;;;;5045636;28;20209;-76
2023/06/21 02:38:52;;;;;;;18.30;13.70;;;17.90;99.90;;;;;;5051396;28;20689;-74
2023/06/21 02:41:20;;;;;;;18.97;13.70;;;17.90;99.90;;;;;;5041977;28;20611;-76
2023/06/21 02:43:49;;;;;;;17.53;13.60;;;17.90;99.90;;;;;;5031415;28;20208;-77
2023/06/21 02:46:18;;;;;;;17.97;14.27;;;17.80;99.90;;;;;;5032118;28;20219;-75
2023/06/21 02:48:46;;;;;;;19.47;13.83;;;17.80;99.90;;;;;;5031385;28;20263;-75
2023/06/21 02:51:14;;;;;;;17.13;13.50;;;17.80;99.90;;;;;;5031660;28;20312;-75
2023/06/21 02:53:44;;;;;;;20.53;15.63;;;17.80;99.90;;;;;;5031265;28;20208;-77
2023/06/21 02:56:12;;;;;;;17.03;13.73;;;17.80;99.90;;;;;;5031363;28;20679;-75
2023/06/21 02:58:40;;;;;;;23.33;15.63;;;17.80;99.90;;;;;;5040222;28;20271;-76
2023/06/21 03:01:08;;;;;;;19.47;15.23;;;17.80;99.90;;;;;;5051620;28;20438;-76
2023/06/21 03:03:36;;;;;;;23.43;15.93;;;17.80;99.90;;;;;;5051144;28;20592;-76
2023/06/21 03:06:05;;;;;;;19.90;15.70;;;17.80;99.90;;;;;;5051430;28;20216;-75
2023/06/21 03:08:33;;;;;;;17.97;14.20;;;17.70;99.90;;;;;;5034879;28;20209;-76
2023/06/21 03:11:02;;;;;;;21.83;15.67;;;17.70;99.90;;;;;;5031252;28;20216;-77
2023/06/21 03:13:31;;;;;;;19.07;14.57;;;17.70;99.90;;;;;;5030944;28;20209;-76
2023/06/21 03:15:59;;;;;;;18.53;14.63;;;17.70;99.90;;;;;;5041382;28;20223;-76
2023/06/21 03:18:27;;;;;;;21.37;15.53;;;17.70;99.90;;;;;;5051355;28;20690;-77
2023/06/21 03:20:55;;;;;;;16.77;14.63;;;17.70;99.90;;;;;;5052980;28;20228;-76
2023/06/21 03:23:23;;;;;;;21.93;15.83;;;17.70;99.90;;;;;;5046846;28;20237;-80
2023/06/21 03:25:51;;;;;;;20.60;15.90;;;17.70;99.90;;;;;;5034947;28;20686;-78
2023/06/21 03:28:21;;;;;;;16.90;14.90;;;17.70;99.90;;;;;;5034985;28;20240;-79
2023/06/21 03:30:49;;;;;;;19.47;14.87;;;17.70;99.90;;;;;;5035011;28;20205;-76
2023/06/21 03:33:17;;;;;;;17.30;14.43;;;17.70;99.90;;;;;;5046060;28;20637;-76
2023/06/21 03:35:46;;;;;;;24.03;15.90;;;17.70;99.90;;;;;;5054749;28;20212;-76
2023/06/21 03:38:14;;;;;;;22.53;16.57;;;17.60;99.90;;;;;;5054680;28;20621;-77
2023/06/21 03:40:42;;;;;;;20.97;15.70;;;17.70;99.90;;;;;;5054297;28;20239;-77
2023/06/21 03:43:11;;;;;;;22.93;17.47;;;17.70;99.90;;;;;;5037250;28;20205;-77
2023/06/21 03:45:40;;;;;;;18.83;15.23;;;17.70;99.90;;;;;;5034592;28;20259;-76
2023/06/21 03:48:08;;;;;;;19.13;16.00;;;17.70;99.90;;;;;;5034583;28;20212;-76
2023/06/21 03:50:38;;;;;;;17.80;15.00;;;17.70;99.90;;;;;;5034295;28;20237;-75
2023/06/21 03:53:06;;;;;;;20.30;15.93;;;17.70;99.90;;;;;;5034017;28;20652;-75
2023/06/21 03:55:35;;;;;;;20.87;15.97;;;17.70;99.90;;;;;;5033992;28;20227;-76
2023/06/21 03:58:03;;;;;;;22.13;16.17;;;17.70;99.90;;;;;;5034015;28;20300;-76
2023/06/21 04:00:31;;;;;;;19.43;16.67;;;17.80;99.90;;;;;;5033857;28;20225;-76
2023/06/21 04:03:01;;;;;;;23.13;16.90;;;17.80;99.90;;;;;;5033939;28;20735;-77
2023/06/21 04:05:29;;;;;;;22.23;17.00;;;17.80;99.90;;;;;;5033552;28;20209;-77
2023/06/21 04:07:58;;;;;;;18.53;15.93;;;17.90;99.90;;;;;;5044089;28;20239;-76
2023/06/21 04:10:26;;;;;;;21.67;15.43;;;18.00;99.90;;;;;;5053878;28;20216;-76
2023/06/21 04:12:55;;;;;;;22.23;16.67;;;18.00;99.90;;;;;;5053627;28;20662;-75
2023/06/21 04:15:23;;;;;;;18.80;15.87;;;18.00;99.90;;;;;;5053866;28;20224;-75
2023/06/21 04:17:51;;;;;;;20.63;15.60;;;18.10;99.90;;;;;;5034060;28;20209;-76
2023/06/21 04:20:21;;;;;;;18.70;15.97;;;18.10;99.90;;;;;;5033852;28;20229;-77
2023/06/21 04:22:49;;;;;;;24.17;15.83;;;18.20;99.90;;;;;;5033822;28;20233;-76
2023/06/21 04:25:18;;;;;;;22.60;16.00;;;18.20;99.90;;;;;;5033822;28;20213;-76
2023/06/21 04:27:46;;;;;;;18.47;15.20;;;18.20;99.90;;;;;;5032421;28;20232;-76
2023/06/21 04:30:15;;;;;;;20.13;15.30;;;18.30;99.90;;;;;;5032222;28;20213;-76
2023/06/21 04:32:45;;;;;;;22.90;14.90;;;18.30;99.90;;;;;;5039265;28;20266;-76
2023/06/21 04:35:16;;;;;;;19.43;15.60;;;18.30;99.90;;;;;;5052109;28;20286;-77
2023/06/21 04:37:46;;;;;;;20.10;15.53;;;18.40;99.90;;;;;;5051748;28;20204;-77
2023/06/21 04:40:17;;;;;;;21.07;14.87;;;18.50;99.90;;;;;;5039463;28;20216;-75
2023/06/21 04:42:54;;;;;;;19.43;14.40;;;18.40;99.90;;;;;;5032042;28;20208;-75
2023/06/21 04:45:23;;;;;;;20.10;14.93;;;18.50;99.90;;;;;;5032901;28;20215;-75
2023/06/21 04:47:52;;;;;;;21.03;14.03;;;18.60;99.90;;;;;;5033397;28;20258;-75
2023/06/21 04:50:22;;;;;;;24.73;14.30;;;18.60;99.90;;;;;;5033639;28;20212;-75
2023/06/21 04:52:57;;;;;;;19.50;13.03;;;18.60;99.90;;;;;;5033066;28;20267;-75
2023/06/21 04:55:26;;;;;;;18.90;13.50;;;18.70;99.90;;;;;;5033371;28;20266;-76
2023/06/21 04:57:58;;;;;;;16.43;12.87;;;18.80;99.90;;;;;;5032795;28;20228;-76
2023/06/21 05:00:26;;;;;;;17.67;12.77;;;18.90;99.90;;;;;;5033345;28;20228;-76
2023/06/21 05:02:56;;;;;;;17.67;12.70;;;19.00;99.90;;;;;;5033068;28;20208;-74
2023/06/21 05:05:24;;;;;;;15.63;12.97;;;19.10;99.90;;;;;;5033139;28;20683;-75
2023/06/21 05:07:54;;;;;;;16.57;12.47;;;19.20;99.90;;;;;;5032905;28;20204;-77
2023/06/21 05:10:22;;;;;;;16.50;12.03;;;19.20;99.90;;;;;;5032706;28;20220;-75
2023/06/21 05:12:50;;;;;;;16.77;11.37;;;19.30;99.90;;;;;;5032359;28;20720;-73
2023/06/21 05:15:18;;;;;;;15.23;11.53;;;19.40;99.90;;;;;;5032652;28;20263;-74
2023/06/21 05:17:47;;;;;;;17.63;11.40;;;19.40;99.90;;;;;;5033102;28;20267;-76
2023/06/21 05:20:15;;;;;;;19.30;11.70;;;19.50;99.90;;;;;;5032838;28;20327;-76
2023/06/21 05:22:43;;;;;;;18.73;10.80;;;19.50;99.90;;;;;;5039742;28;20274;-76
2023/06/21 05:25:13;;;;;;;21.20;11.60;;;19.60;99.90;;;;;;5053179;28;20662;-76
2023/06/21 05:27:41;;;;;;;17.97;12.03;;;19.60;99.90;;;;;;5052606;28;20342;-74
2023/06/21 05:30:10;;;;;;;15.73;11.73;;;19.60;99.90;;;;;;5052777;28;20261;-75
2023/06/21 05:32:38;;;;;;;15.17;11.70;;;19.70;99.90;;;;;;5034616;28;20217;-74
2023/06/21 05:35:06;;;;;;;19.33;12.07;;;19.80;99.90;;;;;;5032743;28;20295;-76
2023/06/21 05:37:34;;;;;;;19.40;12.93;;;19.80;99.90;;;;;;5050446;28;20204;-75
2023/06/21 05:40:03;;;;;;;16.70;11.97;;;19.80;99.90;;;;;;5050464;28;20669;-74
2023/06/21 05:42:32;;;;;;;18.70;12.50;;;19.90;99.90;;;;;;5051252;28;20269;-74
2023/06/21 05:45:00;;;;;;;21.10;11.50;;;20.00;99.90;;;;;;5051499;28;20670;-75
2023/06/21 05:47:28;;;;;;;18.60;11.70;;;20.20;99.90;;;;;;5048187;28;20220;-75
2023/06/21 05:49:57;;;;;;;18.17;12.03;;;20.20;99.90;;;;;;5052230;28;20235;-75
2023/06/21 05:52:25;;;;;;;15.57;11.40;;;20.40;99.90;;;;;;5051790;28;20258;-75
2023/06/21 05:54:54;;;;;;;16.23;10.80;;;20.70;99.90;;;;;;5052245;28;20208;-76
2023/06/21 05:57:24;;;;;;;14.43;10.03;;;21.20;99.90;;;;;;5036936;28;20244;-77
2023/06/21 05:59:55;;;;;;;16.23;9.50;;;21.70;99.90;;;;;;5032146;28;20194;-79
2023/06/21 06:02:24;;;;;;;12.80;9.10;;;22.50;99.90;;;;;;5031542;28;20229;-77
2023/06/21 06:04:52;;;;;;;14.60;8.87;;;23.20;99.90;;;;;;5031984;28;20212;-78
2023/06/21 06:07:24;;;;;;;15.37;8.23;;;24.00;99.90;;;;;;5034410;28;20276;-79
2023/06/21 06:09:53;;;;;;;15.83;8.43;;;24.80;99.90;;;;;;5042219;28;20205;-79
2023/06/21 06:12:21;;;;;;;15.63;7.93;;;25.50;99.90;;;;;;5041133;28;20207;-78
2023/06/21 06:14:53;;;;;;;16.10;8.67;;;25.90;99.90;;;;;;5040736;28;20201;-79
2023/06/21 06:17:21;;;;;;;10.87;8.00;;;26.20;99.90;;;;;;5041212;28;20243;-78
2023/06/21 06:19:49;;;;;;;12.17;8.20;;;26.60;99.90;;;;;;5042688;28;20278;-80
2023/06/21 06:22:17;;;;;;;15.77;8.37;;;26.80;99.90;;;;;;5040786;28;20232;-80
2023/06/21 06:24:47;;;;;;;12.88;7.85;;;26.90;99.90;;;;;;5042719;28;20200;-83
2023/06/21 06:27:16;;;;;;;18.83;8.38;;;27.20;99.90;;;;;;5039410;28;20677;-82
2023/06/21 06:29:44;;;;;;;13.32;7.70;;;27.70;99.90;;;;;;5041512;28;20661;-81
2023/06/21 06:32:13;;;;;;;11.02;7.40;;;28.30;99.90;;;;;;5042168;28;20211;-81
2023/06/21 06:34:41;;;;;;;15.27;7.95;;;28.60;99.90;;;;;;5040133;28;20220;-80
2023/06/21 06:37:11;;;;;;;15.43;7.65;;;28.90;99.90;;;;;;5031159;28;20204;-81
2023/06/21 06:39:45;;;;;;;10.52;6.45;;;29.00;99.90;;;;;;5031945;28;20607;-82
2023/06/21 06:42:13;;;;;;;11.00;6.97;;;29.60;99.90;;;;;;5049176;28;20196;-81
2023/06/21 06:44:42;;;;;;;11.70;6.70;;;30.30;99.90;;;;;;5050826;28;20200;-80
2023/06/21 06:47:10;;;;;;;13.27;7.00;;;30.40;97.90;;;;;;5048113;28;20212;-81
2023/06/21 06:49:40;;;;;;;11.45;6.55;;;30.60;97.20;;;;;;5048015;28;20235;-84
2023/06/21 06:52:08;;;;;;;9.98;6.35;;;29.90;99.90;;;;;;5050530;28;20285;-81
2023/06/21 06:54:36;;;;;;;12.32;6.78;;;30.10;98.70;;;;;;5045267;28;20201;-81
2023/06/21 06:57:05;;;;;;;13.80;6.78;;;30.70;97.80;;;;;;5034617;28;20208;-80
2023/06/21 06:59:33;;;;;;;10.38;6.90;;;31.00;96.30;;;;;;5037509;28;20209;-81
2023/06/21 07:02:01;;;;;;;10.07;6.38;;;31.40;95.30;;;;;;5054829;28;20227;-81
2023/06/21 07:04:30;;;;;;;12.05;6.85;;;30.80;94.70;;;;;;5044761;28;20243;-79
2023/06/21 07:07:01;;;;;;;12.45;7.20;;;30.00;96.70;;;;;;5035212;28;20240;-79
2023/06/21 07:09:33;;;;;;;11.50;7.28;;;29.20;99.50;;;;;;5035152;28;20216;-81
2023/06/21 07:12:01;;;;;;;12.65;7.28;;;29.20;99.90;;;;;;5035079;28;20209;-79
2023/06/21 07:14:30;;;;;;;15.00;7.35;;;29.80;99.20;;;;;;5034997;28;20666;-81
2023/06/21 07:16:58;;;;;;;9.50;6.47;;;30.40;97.50;;;;;;5034926;28;20303;-81
2023/06/21 07:19:26;;;;;;;12.15;7.60;;;30.10;99.10;;;;;;5035184;28;20544;-81
2023/06/21 07:21:54;;;;;;;12.48;7.15;;;30.20;99.60;;;;;;5034657;28;20288;-80
2023/06/21 07:24:23;;;;;;;12.25;7.65;;;30.90;96.20;;;;;;5034819;28;20236;-80
2023/06/21 07:26:52;;;;;;;12.88;7.57;;;31.60;94.60;;;;;;5034761;28;20208;-81
2023/06/21 07:29:20;;;;;;;14.60;7.75;;;31.20;94.20;;;;;;5048855;28;20229;-81
2023/06/21 07:31:49;;;;;;;13.52;7.50;;;31.70;93.90;;;;;;5044346;28;20268;-81
2023/06/21 07:34:17;;;;;;;12.73;7.18;;;31.00;93.60;;;;;;5034822;28;20312;-82
2023/06/21 07:36:45;;;;;;;10.40;7.25;;;31.90;91.40;;;;;;5034692;28;20248;-82
2023/06/21 07:39:14;;;;;;;10.70;6.97;;;32.00;93.10;;;;;;5034478;28;20259;-82
2023/06/21 07:41:43;;;;;;;14.68;7.00;;;31.90;91.10;;;;;;5034694;28;20550;-81
2023/06/21 07:44:11;;;;;;;14.25;6.72;;;32.20;91.20;;;;;;5034867;28;20556;-81
2023/06/21 07:46:39;;;;;;;12.68;7.13;;;32.40;90.00;;;;;;5034391;28;20235;-81
2023/06/21 07:49:08;;;;;;;14.23;6.30;;;32.00;88.60;;;;;;5034658;28;20221;-81
2023/06/21 07:51:36;;;;;;;12.77;6.40;;;32.60;90.60;;;;;;5034029;28;20663;-81
2023/06/21 07:54:04;;;;;;;13.05;6.43;;;32.90;87.10;;;;;;5034507;28;20324;-83
2023/06/21 07:56:32;;;;;;;12.57;5.88;;;33.40;81.00;;;;;;5034182;28;20263;-82
2023/06/21 07:59:02;;;;;;;14.40;6.13;;;33.50;79.80;;;;;;5034384;28;20263;-81
2023/06/21 08:01:30;;;;;;;11.32;5.80;;;33.50;79.10;;;;;;5034486;28;20278;-81
2023/06/21 08:03:59;;;;;;;11.85;6.05;;;33.90;78.40;;;;;;5033646;28;20303;-80
2023/06/21 08:06:28;;;;;;;13.18;6.63;;;34.10;78.10;;;;;;5033628;28;20216;-81
2023/06/21 08:08:56;;;;;;;11.88;5.85;;;33.00;77.70;;;;;;5033905;28;20284;-82
2023/06/21 08:11:29;;;;;;;9.50;5.80;;;33.40;82.30;;;;;;5033859;28;20245;-84
2023/06/21 08:13:57;;;;;;;11.73;5.75;;;33.70;78.90;;;;;;5033468;28;20231;-81
2023/06/21 08:16:27;;;;;;;11.52;6.03;;;34.20;75.50;;;;;;5033805;28;20304;-81
2023/06/21 08:18:55;;;;;;;10.55;5.60;;;34.20;70.90;;;;;;5034189;28;20213;-82
2023/06/21 08:21:23;;;;;;;10.15;6.45;;;34.40;75.20;;;;;;5033854;28;20597;-81
2023/06/21 08:23:51;;;;;;;12.15;6.07;;;33.00;72.30;;;;;;5033428;28;20658;-81
2023/06/21 08:26:19;;;;;;;12.55;6.13;;;33.70;77.60;;;;;;5034634;28;20326;-81
2023/06/21 08:28:47;;;;;;;11.50;6.32;;;33.80;74.00;;;;;;5039220;28;20278;-81
2023/06/21 08:31:15;;;;;;;12.57;6.65;;;34.00;76.20;;;;;;5053217;28;20216;-81
2023/06/21 08:33:45;;;;;;;12.20;6.65;;;34.80;69.90;;;;;;5052811;28;20224;-81
2023/06/21 08:36:13;;;;;;;11.05;6.43;;;34.60;65.90;;;;;;5042354;28;20235;-81
2023/06/21 08:38:41;;;;;;;13.63;6.22;;;33.30;68.60;;;;;;5042188;28;20651;-82
2023/06/21 08:41:10;;;;;;;10.65;5.57;;;32.20;72.80;;;;;;5042447;28;20616;-80
2023/06/21 08:43:39;;;;;;;12.88;5.97;;;33.30;74.60;;;;;;5043326;28;20208;-80
2023/06/21 08:46:08;;;;;;;7.97;4.90;;;33.40;72.40;;;;;;5045102;28;20240;-81
2023/06/21 08:48:37;;;;;;;13.85;6.20;;;33.90;74.10;;;;;;5052511;28;20211;-80
2023/06/21 08:51:07;;;;;;;11.10;6.25;;;33.70;66.30;;;;;;5050594;28;20214;-81
2023/06/21 08:53:42;;;;;;;9.13;5.57;;;34.40;64.20;;;;;;5051068;28;20220;-80
2023/06/21 08:56:14;;;;;;;10.73;5.78;;;33.60;64.50;;;;;;5052783;28;20207;-80
2023/06/21 08:58:49;;;;;;;10.73;5.60;;;33.50;66.70;;;;;;5053001;28;20208;-81
2023/06/21 09:01:23;;;;;;;12.05;6.20;;;33.60;68.30;;;;;;5042022;28;20554;-80
2023/06/21 09:03:57;;;;;;;10.43;5.63;;;33.80;62.80;;;;;;5032603;28;20205;-81
2023/06/21 09:06:28;;;;;;;11.77;5.93;;;34.60;65.30;;;;;;5033055;28;20308;-80
2023/06/21 09:08:57;;;;;;;13.10;6.32;;;34.30;66.70;;;;;;5032637;28;20220;-81
2023/06/21 09:11:26;;;;;;;10.82;5.78;;;34.10;67.50;;;;;;5032495;28;20734;-80
2023/06/21 09:13:55;;;;;;;12.48;5.68;;;33.50;64.00;;;;;;5032743;28;20225;-80
2023/06/21 09:16:24;;;;;;;11.25;6.55;;;34.00;68.10;;;;;;5048400;28;20266;-81
2023/06/21 09:18:52;;;;;;;12.63;5.90;;;33.60;65.90;;;;;;5042481;28;20209;-80
2023/06/21 09:21:22;;;;;;;9.98;7.28;;;34.50;68.80;;;;;;5043816;28;20250;-80
2023/06/21 09:23:52;;;;;;;11.93;5.95;;;34.00;66.50;;;;;;5041417;28;20200;-79
2023/06/21 09:26:20;;;;;;;13.00;6.75;;;34.70;70.10;;;;;;5042484;28;20216;-79
2023/06/21 09:28:48;;;;;;;12.35;6.90;;;35.20;61.30;;;;;;5041299;28;20229;-81
2023/06/21 09:31:16;;;;;;;12.73;6.20;;;35.90;56.30;;;;;;5041852;28;20215;-81
2023/06/21 09:33:45;;;;;;;11.98;5.93;;;34.90;59.50;;;;;;5042617;28;20223;-80
2023/06/21 09:36:14;;;;;;;10.70;5.60;;;34.90;62.20;;;;;;5042316;28;20263;-78
2023/06/21 09:38:43;;;;;;;11.13;5.78;;;35.40;60.10;;;;;;5040961;28;20254;-81
2023/06/21 09:41:13;;;;;;;11.70;6.47;;;35.90;56.40;;;;;;5042118;28;20254;-81
2023/06/21 09:43:42;;;;;;;13.52;5.93;;;35.60;55.40;;;;;;5042869;28;20200;-82
2023/06/21 09:46:11;;;;;;;9.88;4.68;;;34.70;56.70;;;;;;5041253;28;20255;-80
2023/06/21 09:48:41;;;;;;;12.00;5.30;;;34.60;57.00;;;;;;5040656;28;20209;-82
2023/06/21 09:51:11;;;;;;;10.57;5.20;;;35.30;54.60;;;;;;5042076;28;20216;-80
2023/06/21 09:53:43;;;;;;;8.65;5.18;;;34.50;53.70;;;;;;5041935;28;20758;-80
2023/06/21 09:56:16;;;;;;;10.15;4.80;;;34.30;53.00;;;;;;5041148;28;20212;-80
2023/06/21 09:58:47;;;;;;;8.30;5.03;;;34.30;52.70;;;;;;5040574;28;20224;-80
2023/06/21 10:01:15;;;;;;;10.93;5.20;;;34.80;54.40;;;;;;5043154;28;20674;-80
2023/06/21 10:03:46;;;;;;;11.40;5.82;;;35.10;55.10;;;;;;5040199;28;20565;-81
2023/06/21 10:06:16;;;;;;;11.55;5.93;;;35.30;52.10;;;;;;5041110;28;20196;-79
2023/06/21 10:08:49;;;;;;;9.73;5.28;;;35.30;55.70;;;;;;5040417;28;20220;-79
2023/06/21 10:11:18;;;;;;;11.55;5.00;;;34.70;56.10;;;;;;5041067;28;20196;-81
2023/06/21 10:13:48;;;;;;;10.93;5.75;;;35.20;57.40;;;;;;5040303;28;20575;-81
2023/06/21 10:16:19;;;;;;;9.00;5.70;;;36.50;54.10;;;;;;5040788;28;20204;-81
2023/06/21 10:18:49;;;;;;;7.53;4.90;;;36.50;50.00;;;;;;5040501;28;20736;-79
2023/06/21 10:21:20;;;;;;;11.05;5.05;;;36.10;53.20;;;;;;5047801;28;20200;-80
2023/06/21 10:23:50;;;;;;;11.15;5.22;;;34.90;53.50;;;;;;5040656;28;20200;-79
2023/06/21 10:26:21;;;;;;;10.45;5.30;;;33.60;55.80;;;;;;5037488;28;20208;-79
2023/06/21 10:28:56;;;;;;;11.48;5.55;;;32.70;58.80;;;;;;5043388;28;20334;-81
2023/06/21 10:31:26;;;;;;;13.52;5.80;;;31.60;62.60;;;;;;5051594;28;20195;-78
2023/06/21 10:33:56;;;;;;;11.30;5.35;;;30.80;68.30;;;;;;5043984;28;20232;-79
2023/06/21 10:36:29;;;;;;;13.00;5.57;;;30.10;68.10;;;;;;5046781;28;20662;-78
2023/06/21 10:39:03;;;;;;;9.13;5.43;;;29.70;69.60;;;;;;5044744;28;20225;-77
2023/06/21 10:41:34;;;;;;;10.18;5.85;;;29.40;73.40;;;;;;5044221;28;20236;-80
2023/06/21 10:44:03;;;;;;;8.95;5.50;;;28.80;76.50;;;;;;5035552;28;20656;-80
2023/06/21 10:46:33;;;;;;;15.67;6.27;;;28.80;78.20;;;;;;5035758;28;20213;-77
2023/06/21 10:49:02;;;;;;;10.20;5.40;;;28.50;78.30;;;;;;5041367;28;20212;-77
2023/06/21 10:51:36;;;;;;;10.07;5.53;;;28.30;80.70;;;;;;5044967;28;20208;-78
2023/06/21 10:54:06;;;;;;;10.23;5.47;;;28.10;82.40;;;;;;5045958;28;20236;-78
2023/06/21 10:56:36;;;;;;;12.60;5.83;;;28.00;83.80;;;;;;5044536;28;20223;-78
2023/06/21 10:59:05;;;;;;;8.83;5.57;;;27.90;83.60;;;;;;5035303;28;20685;-80
2023/06/21 11:01:33;;;;;;;9.23;5.73;;;27.70;88.70;;;;;;5044617;28;20210;-76
2023/06/21 11:04:01;;;;;;;12.63;6.40;;;27.70;89.50;;;;;;5052238;28;20298;-77
2023/06/21 11:06:33;;;;;;;20.43;5.30;;;28.00;90.00;;;;;;5055187;28;20670;-75
2023/06/21 11:09:10;;;;;;;23.60;5.40;;;27.40;78.80;;;;;;5055541;28;20215;-78
2023/06/21 11:11:49;;;;;;;28.70;5.83;;;26.20;78.40;;;;;;5044439;28;20216;-75
2023/06/21 11:14:21;;;;;;;27.60;6.37;;;25.90;84.50;;;;;;5034613;28;20232;-78
2023/06/21 11:17:07;;;;;;;27.37;6.50;;;25.60;86.40;;;;;;5035221;28;20212;-75
2023/06/21 11:19:37;;;;;;;25.53;6.37;;;25.60;85.60;;;;;;5034689;28;20238;-76
2023/06/21 11:22:16;;;;;;;17.10;5.53;;;26.20;84.30;;;;;;5035117;28;20760;-76
2023/06/21 11:24:51;;;;;;;23.77;6.30;;;26.70;83.60;;;;;;5054613;28;20216;-77
2023/06/21 11:27:22;;;;;;;20.47;5.70;;;26.60;84.40;;;;;;5053636;28;20212;-75
2023/06/21 11:29:59;;;;;;;19.93;5.37;;;26.90;82.50;;;;;;5055004;28;20369;-77
2023/06/21 11:32:29;;;;;;;18.20;5.67;;;27.20;79.30;;;;;;5054630;28;20539;-75
2023/06/21 11:34:59;;;;;;;17.83;5.27;;;27.60;79.10;;;;;;5054522;28;20246;-76
2023/06/21 11:37:35;;;;;;;16.27;5.30;;;27.70;80.00;;;;;;5038720;28;20317;-77
2023/06/21 11:40:06;;;;;;;18.97;5.17;;;27.90;78.30;;;;;;5034801;28;20602;-77
2023/06/21 11:42:37;;;;;;;19.90;5.23;;;28.10;76.70;;;;;;5033998;28;20598;-74
2023/06/21 11:45:25;;;;;;;18.83;5.43;;;28.10;74.70;;;;;;5034304;28;20258;-76
2023/06/21 11:48:08;;;;;;;16.77;4.80;;;28.10;77.70;;;;;;5034483;28;20216;-75
2023/06/21 11:50:41;;;;;;;16.03;4.93;;;27.90;80.10;;;;;;5034654;28;20209;-75
2023/06/21 11:53:18;;;;;;;16.17;4.90;;;28.40;75.50;;;;;;5034202;28;20288;-77
2023/06/21 11:55:48;;;;;;;20.67;5.23;;;28.80;78.30;;;;;;5034617;28;20227;-78
2023/06/21 11:58:18;;;;;;;19.57;4.87;;;29.10;77.60;;;;;;5034223;28;20555;-76
2023/06/21 12:00:47;;;;;;;17.37;5.27;;;29.00;71.00;;;;;;5034197;28;20209;-76
2023/06/21 12:03:16;;;;;;;17.57;4.90;;;29.10;69.30;;;;;;5052780;28;20216;-76
2023/06/21 12:05:50;;;;;;;16.67;5.10;;;28.80;69.20;;;;;;5053973;28;20291;-77
2023/06/21 12:08:19;;;;;;;17.10;4.97;;;28.70;72.70;;;;;;5054321;28;20222;-77
2023/06/21 12:10:48;;;;;;;19.27;5.17;;;29.00;71.30;;;;;;5038553;28;20260;-77
2023/06/21 12:13:21;;;;;;;20.57;5.57;;;28.50;71.90;;;;;;5033960;28;20295;-76
2023/06/21 12:15:53;;;;;;;18.07;5.30;;;28.80;70.10;;;;;;5033812;28;20232;-76
2023/06/21 12:18:22;;;;;;;17.63;4.93;;;29.10;70.00;;;;;;5034389;28;20208;-76
2023/06/21 12:20:54;;;;;;;20.40;5.17;;;28.80;69.40;;;;;;5037225;28;20231;-77
2023/06/21 12:23:23;;;;;;;14.00;4.80;;;28.80;67.50;;;;;;5054104;28;20258;-78
2023/06/21 12:25:53;;;;;;;16.03;4.60;;;28.60;66.70;;;;;;5049944;28;20248;-79
2023/06/21 12:28:24;;;;;;;18.27;5.37;;;28.50;66.90;;;;;;5034884;28;20260;-78
2023/06/21 12:30:54;;;;;;;17.77;4.77;;;28.80;68.10;;;;;;5034124;28;20212;-79
2023/06/21 12:33:26;;;;;;;14.97;4.90;;;28.90;66.90;;;;;;5033692;28;20244;-77
2023/06/21 12:36:11;;;;;;;12.80;4.10;;;28.90;70.40;;;;;;5034080;28;20229;-76
2023/06/21 12:38:39;;;;;;;11.63;4.17;;;28.70;65.30;;;;;;5034022;28;20215;-74
2023/06/21 12:41:07;;;;;;;12.97;4.33;;;28.20;65.70;;;;;;5033485;28;20220;-76
2023/06/21 12:43:38;;;;;;;11.53;3.93;;;28.30;68.30;;;;;;5033097;28;20609;-76
2023/06/21 12:46:07;;;;;;;12.67;4.20;;;28.40;65.90;;;;;;5033240;28;20631;-76